Time;durP1;ratioP1;P1;durP2;ratioP2;P2;SDS_P1;SDS_P2;PMS_P1;PMS_P2;Temp;Humidity;BMP_temperature;BMP_pressure;BME280_temperature;BME280_humidity;BME280_pressure;Samples;Min_cycle;Max_cycle;Signal;HPM_P1;HPM_P2
2021/12/02 00:01:19;;;;;;;;;;;4.20;99.90;;;;;;5032489;28;19928;-85
2021/12/02 00:03:46;;;;;;;;;;;4.10;99.90;;;;;;5040915;28;19917;-86
2021/12/02 00:06:13;;;;;;;;;;;4.10;99.90;;;;;;5032246;28;20038;-85
2021/12/02 00:08:38;;;;;;;;;;;3.90;99.90;;;;;;5042185;28;20292;-84
2021/12/02 00:11:04;;;;;;;;;;;3.80;99.90;;;;;;5044894;28;20004;-84
2021/12/02 00:13:37;;;;;;;;;;;3.60;99.90;;;;;;5047470;28;19929;-83
2021/12/02 00:21:11;;;;;;;;;;;3.30;99.90;;;;;;5046368;28;19917;-84
2021/12/02 00:23:38;;;;;;;;;;;3.30;99.90;;;;;;5052270;28;19920;-87
2021/12/02 00:26:07;;;;;;;;;;;3.20;99.90;;;;;;5047479;28;20310;-86
2021/12/02 00:28:36;;;;;;;;;;;3.20;99.90;;;;;;5034473;28;19959;-85
2021/12/02 00:31:01;;;;;;;;;;;3.30;99.90;;;;;;5021491;28;19909;-83
2021/12/02 00:33:28;;;;;;;;;;;3.30;99.90;;;;;;5034885;28;19919;-86
2021/12/02 00:35:54;;;;;;;;;;;3.40;99.90;;;;;;5027784;28;20223;-88
2021/12/02 00:38:20;;;;;;;;;;;3.60;99.90;;;;;;5019809;28;19925;-83
2021/12/02 00:40:46;;;;;;;;;;;3.90;99.90;;;;;;5029759;28;19929;-91
2021/12/02 00:43:12;;;;;;;;;;;4.00;99.90;;;;;;5039740;28;19913;-87
2021/12/02 00:45:39;;;;;;;;;;;4.10;99.90;;;;;;5025951;28;20019;-90
2021/12/02 00:48:06;;;;;;;;;;;4.10;99.90;;;;;;5033725;28;19913;-86
2021/12/02 00:50:32;;;;;;;;;;;4.10;99.90;;;;;;5036969;28;19913;-91
2021/12/02 00:52:58;;;;;;;;;;;4.00;99.90;;;;;;5027278;28;19920;-90
2021/12/02 00:55:25;;;;;;;;;;;4.10;99.90;;;;;;5028183;28;19938;-90
2021/12/02 00:57:50;;;;;;;;;;;4.00;99.90;;;;;;5046905;28;19920;-78
2021/12/02 01:00:16;;;;;;;;;;;3.90;99.90;;;;;;5039623;28;19913;-82
2021/12/02 01:02:42;;;;;;;;;;;3.90;99.90;;;;;;5042797;28;20316;-84
2021/12/02 01:05:08;;;;;;;;;;;3.90;99.90;;;;;;5039123;28;20308;-88
2021/12/02 01:07:34;;;;;;;;;;;3.90;99.90;;;;;;5032332;28;19924;-83
2021/12/02 01:09:59;;;;;;;;;;;3.90;99.90;;;;;;5042658;28;19913;-92
2021/12/02 01:12:25;;;;;;;;;;;4.00;99.90;;;;;;5030851;28;19913;-89
2021/12/02 01:14:51;;;;;;;;;;;4.00;99.90;;;;;;5041413;28;19920;-82
2021/12/02 01:17:16;;;;;;;;;;;3.90;99.90;;;;;;5010161;28;19964;-88
2021/12/02 01:19:42;;;;;;;;;;;3.80;99.90;;;;;;5038910;28;19913;-88
2021/12/02 01:22:08;;;;;;;;;;;3.70;99.90;;;;;;5045377;28;20220;-88
2021/12/02 01:24:34;;;;;;;;;;;3.60;99.90;;;;;;5038339;28;20209;-76
2021/12/02 01:27:02;;;;;;;;;;;3.50;99.90;;;;;;5038681;28;19914;-86
2021/12/02 01:29:27;;;;;;;;;;;3.50;99.90;;;;;;5038846;28;19914;-87
2021/12/02 01:31:55;;;;;;;;;;;3.40;99.90;;;;;;5026062;28;20012;-90
2021/12/02 01:34:22;;;;;;;;;;;3.40;99.90;;;;;;5018736;28;19999;-88
2021/12/02 01:36:49;;;;;;;;;;;3.40;99.90;;;;;;5021933;28;19920;-90
2021/12/02 01:39:15;;;;;;;;;;;3.50;99.90;;;;;;5044937;28;20304;-89
2021/12/02 01:41:48;;;;;;;;;;;3.40;99.90;;;;;;5044027;28;19917;-84
2021/12/02 01:44:15;;;;;;;;;;;3.50;99.90;;;;;;5021924;28;19964;-83
2021/12/02 01:46:43;;;;;;;;;;;3.50;99.90;;;;;;5034905;28;19917;-83
2021/12/02 01:49:11;;;;;;;;;;;3.50;99.90;;;;;;5041677;28;19932;-84
2021/12/02 01:51:38;;;;;;;;;;;3.50;99.90;;;;;;5035774;28;19909;-86
2021/12/02 01:54:08;;;;;;;;;;;3.60;99.90;;;;;;5036062;28;19913;-86
2021/12/02 01:56:40;;;;;;;;;;;3.50;99.90;;;;;;5034220;28;20331;-87
2021/12/02 01:59:10;;;;;;;;;;;3.50;99.90;;;;;;5030946;28;19963;-87
2021/12/02 02:01:36;;;;;;;;;;;3.50;99.90;;;;;;5025889;28;19917;-89
2021/12/02 02:04:02;;;;;;;;;;;3.50;99.90;;;;;;5032589;28;20304;-87
2021/12/02 02:06:30;;;;;;;;;;;3.50;99.90;;;;;;5015677;28;19920;-86
2021/12/02 02:08:57;;;;;;;;;;;3.50;99.90;;;;;;5043378;28;19983;-86
2021/12/02 02:11:29;;;;;;;;;;;3.50;99.90;;;;;;5034131;28;19917;-85
2021/12/02 02:13:55;;;;;;;;;;;3.50;99.90;;;;;;5034564;28;19922;-85
2021/12/02 02:16:21;;;;;;;;;;;3.60;99.90;;;;;;5040427;28;19924;-82
2021/12/02 02:18:46;;;;;;;;;;;3.60;99.90;;;;;;5047707;28;19913;-86
2021/12/02 02:21:14;;;;;;;;;;;3.60;99.90;;;;;;5028948;28;19924;-86
2021/12/02 02:23:43;;;;;;;;;;;3.50;99.90;;;;;;5019545;28;19982;-86
2021/12/02 02:26:09;;;;;;;;;;;3.50;99.90;;;;;;5019666;28;19917;-86
2021/12/02 02:28:35;;;;;;;;;;;3.40;99.90;;;;;;5017835;28;20259;-85
2021/12/02 02:31:01;;;;;;;;;;;3.30;99.90;;;;;;5034844;28;19983;-77
2021/12/02 02:33:35;;;;;;;;;;;3.20;99.90;;;;;;5035550;28;19920;-85
2021/12/02 02:36:00;;;;;;;;;;;3.20;99.90;;;;;;5024131;28;20330;-78
2021/12/02 02:38:26;;;;;;;;;;;3.10;99.90;;;;;;5032208;28;20008;-87
2021/12/02 02:40:54;;;;;;;;;;;3.20;99.90;;;;;;5045261;28;20004;-86
2021/12/02 02:43:22;;;;;;;;;;;3.10;99.90;;;;;;5030988;28;19913;-87
2021/12/02 02:45:48;;;;;;;;;;;3.10;99.90;;;;;;5042341;28;19944;-86
2021/12/02 02:48:14;;;;;;;;;;;3.10;99.90;;;;;;5023373;28;20374;-87
2021/12/02 02:50:39;;;;;;;;;;;3.10;99.90;;;;;;5042151;28;20144;-85
2021/12/02 02:53:10;;;;;;;;;;;3.10;99.90;;;;;;5038437;28;19917;-85
2021/12/02 02:55:36;;;;;;;;;;;3.10;99.90;;;;;;5022087;28;19913;-86
2021/12/02 03:00:59;;;;;;;;;;;3.10;99.90;;;;;;5034683;28;19924;-87
2021/12/02 03:08:49;;;;;;;;;;;3.50;99.90;;;;;;5027644;28;19948;-86
2021/12/02 03:11:17;;;;;;;;;;;3.50;99.90;;;;;;5020848;28;19917;-86
2021/12/02 03:13:53;;;;;;;;;;;3.60;99.90;;;;;;5047222;28;20305;-76
2021/12/02 03:19:03;;;;;;;;;;;3.70;99.90;;;;;;5043323;28;19997;-85
2021/12/02 03:21:29;;;;;;;;;;;3.70;99.90;;;;;;5037139;28;20012;-87
2021/12/02 03:23:56;;;;;;;;;;;3.70;99.90;;;;;;5032677;28;19967;-88
2021/12/02 03:26:22;;;;;;;;;;;3.70;99.90;;;;;;5042632;28;19912;-89
2021/12/02 03:28:50;;;;;;;;;;;3.70;99.90;;;;;;5042444;28;19979;-79
2021/12/02 03:31:16;;;;;;;;;;;3.70;99.90;;;;;;5042481;28;19913;-90
2021/12/02 03:33:41;;;;;;;;;;;3.70;99.90;;;;;;5034377;28;19983;-85
2021/12/02 03:36:11;;;;;;;;;;;3.70;99.90;;;;;;5029567;28;20296;-82
2021/12/02 03:38:37;;;;;;;;;;;3.70;99.90;;;;;;5020815;28;19909;-89
2021/12/02 03:41:03;;;;;;;;;;;3.60;99.90;;;;;;5035728;28;20252;-86
2021/12/02 03:43:39;;;;;;;;;;;3.60;99.90;;;;;;5038172;28;20016;-74
2021/12/02 03:46:05;;;;;;;;;;;3.60;99.90;;;;;;5040284;28;19913;-86
2021/12/02 03:48:31;;;;;;;;;;;3.50;99.90;;;;;;5038185;28;19926;-84
2021/12/02 03:50:57;;;;;;;;;;;3.40;99.90;;;;;;5030033;28;19922;-90
2021/12/02 03:53:22;;;;;;;;;;;3.30;99.90;;;;;;5016429;28;19913;-91
2021/12/02 03:55:48;;;;;;;;;;;3.30;99.90;;;;;;5019458;28;20212;-90
2021/12/02 03:58:13;;;;;;;;;;;3.20;99.90;;;;;;5032342;28;19917;-89
2021/12/02 04:00:39;;;;;;;;;;;3.10;99.90;;;;;;5035554;28;19924;-88
2021/12/02 04:03:05;;;;;;;;;;;3.10;99.90;;;;;;5039400;28;19913;-90
2021/12/02 04:05:30;;;;;;;;;;;3.00;99.90;;;;;;5029933;28;19920;-85
2021/12/02 04:07:56;;;;;;;;;;;3.00;99.90;;;;;;5035911;28;20013;-90
2021/12/02 04:10:22;;;;;;;;;;;2.90;99.90;;;;;;5037330;28;20024;-94
2021/12/02 04:15:39;;;;;;;;;;;2.80;99.90;;;;;;5036120;28;20207;-89
2021/12/02 04:18:05;;;;;;;;;;;2.90;99.90;;;;;;5036579;28;19919;-92
2021/12/02 04:20:31;;;;;;;;;;;2.90;99.90;;;;;;5037343;28;19909;-84
2021/12/02 04:22:57;;;;;;;;;;;2.90;99.90;;;;;;5022289;28;20026;-89
2021/12/02 04:25:23;;;;;;;;;;;2.90;99.90;;;;;;5030283;28;20296;-90
2021/12/02 04:27:49;;;;;;;;;;;2.90;99.90;;;;;;5022663;28;19916;-88
2021/12/02 04:30:17;;;;;;;;;;;2.90;99.90;;;;;;5051029;28;19917;-91
2021/12/02 04:32:42;;;;;;;;;;;2.90;99.90;;;;;;5036884;28;20220;-89
2021/12/02 04:35:08;;;;;;;;;;;2.90;99.90;;;;;;5045937;28;19920;-87
2021/12/02 04:37:34;;;;;;;;;;;2.80;99.90;;;;;;5027276;28;19914;-86
2021/12/02 04:39:59;;;;;;;;;;;2.70;99.90;;;;;;5043193;28;20388;-87
2021/12/02 04:42:25;;;;;;;;;;;2.60;99.90;;;;;;5029299;28;19971;-86
2021/12/02 04:44:51;;;;;;;;;;;2.50;99.90;;;;;;5037210;28;20204;-76
2021/12/02 04:47:17;;;;;;;;;;;2.40;99.90;;;;;;5029350;28;19948;-86
2021/12/02 04:49:43;;;;;;;;;;;2.40;99.90;;;;;;5018215;28;19925;-85
2021/12/02 04:52:09;;;;;;;;;;;2.40;99.90;;;;;;5024520;28;19913;-86
2021/12/02 04:54:34;;;;;;;;;;;2.30;99.90;;;;;;5034776;28;19918;-86
2021/12/02 04:57:00;;;;;;;;;;;2.40;99.90;;;;;;5030858;28;19914;-87
2021/12/02 04:59:26;;;;;;;;;;;2.40;99.90;;;;;;5032980;28;19920;-84
2021/12/02 05:01:51;;;;;;;;;;;2.40;99.90;;;;;;5014784;28;19917;-89
2021/12/02 05:04:17;;;;;;;;;;;2.50;99.90;;;;;;5036725;28;19916;-90
2021/12/02 05:06:42;;;;;;;;;;;2.40;99.90;;;;;;5032950;28;19913;-86
2021/12/02 05:09:08;;;;;;;;;;;2.50;99.90;;;;;;5032522;28;19917;-90
2021/12/02 05:11:34;;;;;;;;;;;2.60;99.90;;;;;;5031465;28;19951;-91
2021/12/02 05:13:59;;;;;;;;;;;2.70;99.90;;;;;;5030766;28;19921;-84
2021/12/02 05:16:25;;;;;;;;;;;2.80;99.90;;;;;;5031957;28;19917;-93
2021/12/02 05:18:51;;;;;;;;;;;2.80;99.90;;;;;;5031886;28;19963;-75
2021/12/02 05:21:16;;;;;;;;;;;2.80;99.90;;;;;;5048494;22;19931;-87
2021/12/02 05:23:42;;;;;;;;;;;2.80;99.90;;;;;;5055780;28;19967;-85
2021/12/02 05:26:08;;;;;;;;;;;2.80;99.90;;;;;;5040874;28;19916;-87
2021/12/02 05:28:33;;;;;;;;;;;2.80;99.90;;;;;;5050032;28;19935;-86
2021/12/02 05:30:59;;;;;;;;;;;2.80;99.90;;;;;;5059734;28;19917;-84
2021/12/02 05:33:25;;;;;;;;;;;2.90;99.90;;;;;;5047092;28;20330;-87
2021/12/02 05:35:50;;;;;;;;;;;2.90;99.90;;;;;;5055387;28;20003;-84
2021/12/02 05:38:16;;;;;;;;;;;2.90;99.90;;;;;;5053366;28;19916;-84
2021/12/02 05:40:41;;;;;;;;;;;2.90;99.90;;;;;;5033647;28;19928;-82
2021/12/02 05:43:07;;;;;;;;;;;2.80;99.90;;;;;;5051264;28;19965;-84
2021/12/02 05:45:33;;;;;;;;;;;2.80;99.90;;;;;;5046678;28;19917;-84
2021/12/02 05:47:58;;;;;;;;;;;2.80;99.90;;;;;;5041645;28;19913;-83
2021/12/02 05:50:24;;;;;;;;;;;2.70;99.90;;;;;;5051430;28;20422;-83
2021/12/02 05:52:50;;;;;;;;;;;2.70;99.90;;;;;;5037238;28;19921;-82
2021/12/02 05:55:16;;;;;;;;;;;2.60;99.90;;;;;;5055769;28;19913;-83
2021/12/02 05:57:41;;;;;;;;;;;2.40;99.90;;;;;;5035998;28;20262;-83
2021/12/02 06:00:08;;;;;;;;;;;2.30;99.90;;;;;;5053144;28;19913;-83
2021/12/02 06:02:37;;;;;;;;;;;2.20;99.90;;;;;;5034637;28;19965;-83
2021/12/02 06:05:06;;;;;;;;;;;2.20;99.90;;;;;;5051876;28;20011;-81
2021/12/02 06:07:32;;;;;;;;;;;2.10;99.90;;;;;;5050271;28;19921;-81
2021/12/02 06:09:58;;;;;;;;;;;2.10;99.90;;;;;;5043739;28;19970;-82
2021/12/02 06:12:23;;;;;;;;;;;2.00;99.90;;;;;;5057730;28;20218;-81
2021/12/02 06:14:49;;;;;;;;;;;2.10;99.90;;;;;;5061020;28;19923;-81
2021/12/02 06:17:15;;;;;;;;;;;2.10;99.90;;;;;;5039803;28;19913;-81
2021/12/02 06:19:40;;;;;;;;;;;2.10;99.90;;;;;;5055799;28;20015;-82
2021/12/02 06:22:08;;;;;;;;;;;2.00;99.90;;;;;;5059108;28;20311;-82
2021/12/02 06:24:43;;;;;;;;;;;2.00;99.90;;;;;;5042838;28;19975;-82
2021/12/02 06:27:11;;;;;;;;;;;2.20;99.90;;;;;;5039595;28;19960;-83
2021/12/02 06:29:37;;;;;;;;;;;2.20;99.90;;;;;;5055418;28;20326;-83
2021/12/02 06:32:04;;;;;;;;;;;2.10;99.90;;;;;;5055377;28;20046;-82
2021/12/02 06:34:30;;;;;;;;;;;2.00;99.90;;;;;;5040239;28;19916;-84
2021/12/02 06:36:55;;;;;;;;;;;2.10;99.90;;;;;;5056949;28;20218;-83
2021/12/02 06:39:21;;;;;;;;;;;2.10;99.90;;;;;;5042157;28;19916;-82
2021/12/02 06:41:46;;;;;;;;;;;2.10;99.90;;;;;;5059895;28;20322;-83
2021/12/02 06:44:13;;;;;;;;;;;2.30;99.90;;;;;;5055449;28;19921;-80
2021/12/02 06:46:38;;;;;;;;;;;2.30;99.90;;;;;;5040290;28;19971;-83
2021/12/02 06:49:04;;;;;;;;;;;2.30;99.90;;;;;;5055752;28;19957;-82
2021/12/02 06:51:30;;;;;;;;;;;2.40;99.90;;;;;;5041150;28;19914;-82
2021/12/02 06:53:56;;;;;;;;;;;2.50;99.90;;;;;;5044827;28;19928;-83
2021/12/02 06:56:22;;;;;;;;;;;2.50;99.90;;;;;;5054380;28;19917;-82
2021/12/02 06:58:47;;;;;;;;;;;2.50;99.90;;;;;;5054237;28;20003;-89
2021/12/02 07:01:13;;;;;;;;;;;2.50;99.90;;;;;;5031239;28;19917;-87
2021/12/02 07:03:38;;;;;;;;;;;2.50;99.90;;;;;;5058107;28;19921;-90
2021/12/02 07:06:04;;;;;;;;;;;2.50;99.90;;;;;;5058534;28;19917;-87
2021/12/02 07:08:31;;;;;;;;;;;2.50;99.90;;;;;;5033270;28;19960;-89
2021/12/02 07:10:58;;;;;;;;;;;2.40;99.90;;;;;;5037531;28;19913;-88
2021/12/02 07:13:24;;;;;;;;;;;2.40;99.90;;;;;;5038967;28;19913;-86
2021/12/02 07:15:53;;;;;;;;;;;2.40;99.90;;;;;;5056266;28;20003;-86
2021/12/02 07:18:19;;;;;;;;;;;2.50;99.90;;;;;;5042450;28;20011;-86
2021/12/02 07:20:47;;;;;;;;;;;2.60;99.90;;;;;;5052268;28;19970;-91
2021/12/02 07:23:13;;;;;;;;;;;2.40;99.90;;;;;;5037379;28;20550;-75
2021/12/02 07:25:41;;;;;;;;;;;2.20;99.90;;;;;;5054076;28;20301;-84
2021/12/02 07:28:11;;;;;;;;;;;2.00;99.90;;;;;;5052626;28;19955;-87
2021/12/02 07:30:36;;;;;;;;;;;2.00;99.90;;;;;;5058216;28;19924;-89
2021/12/02 07:33:02;;;;;;;;;;;2.00;99.90;;;;;;5052664;28;19913;-86
2021/12/02 07:35:28;;;;;;;;;;;2.00;99.90;;;;;;5052783;28;19920;-76
2021/12/02 07:37:55;;;;;;;;;;;2.00;99.90;;;;;;5061745;28;19916;-86
2021/12/02 07:40:21;;;;;;;;;;;2.10;99.90;;;;;;5052961;28;20235;-86
2021/12/02 07:42:48;;;;;;;;;;;2.10;99.90;;;;;;5043819;28;19917;-86
2021/12/02 07:45:14;;;;;;;;;;;2.10;99.90;;;;;;5064224;28;20361;-85
2021/12/02 07:47:40;;;;;;;;;;;2.10;99.90;;;;;;5040174;28;19921;-83
2021/12/02 07:50:07;;;;;;;;;;;2.10;99.90;;;;;;5030114;28;19919;-86
2021/12/02 07:52:33;;;;;;;;;;;2.10;99.90;;;;;;5055539;28;19920;-87
2021/12/02 07:55:02;;;;;;;;;;;2.10;99.90;;;;;;5054112;28;20386;-90
2021/12/02 07:57:27;;;;;;;;;;;2.10;99.90;;;;;;5047595;28;20223;-86
2021/12/02 07:59:53;;;;;;;;;;;2.10;99.90;;;;;;5051551;28;19988;-84
2021/12/02 08:02:21;;;;;;;;;;;2.10;99.90;;;;;;5051825;28;19923;-84
2021/12/02 08:04:47;;;;;;;;;;;2.10;99.90;;;;;;5042008;28;19919;-83
2021/12/02 08:07:12;;;;;;;;;;;2.10;99.90;;;;;;5058725;28;19914;-85
2021/12/02 08:09:38;;;;;;;;;;;2.00;99.90;;;;;;5062777;28;19920;-86
2021/12/02 08:12:04;;;;;;;;;;;2.10;99.90;;;;;;5051743;28;19935;-84
2021/12/02 08:14:30;;;;;;;;;;;2.10;99.90;;;;;;5045159;28;19927;-85
2021/12/02 08:16:55;;;;;;;;;;;2.30;99.90;;;;;;5056349;28;20218;-85
2021/12/02 08:19:21;;;;;;;;;;;2.30;99.90;;;;;;5032320;28;19917;-84
2021/12/02 08:21:47;;;;;;;;;;;2.30;99.90;;;;;;5030713;28;19920;-86
2021/12/02 08:24:13;;;;;;;;;;;2.30;99.90;;;;;;5019644;28;19928;-82
2021/12/02 08:26:38;;;;;;;;;;;2.30;99.90;;;;;;5045692;28;19941;-82
2021/12/02 08:29:05;;;;;;;;;;;2.30;99.90;;;;;;5045509;28;19917;-85
2021/12/02 08:31:30;;;;;;;;;;;2.30;99.90;;;;;;5058749;28;19967;-84
2021/12/02 08:33:56;;;;;;;;;;;2.40;99.90;;;;;;5057148;28;19917;-85
2021/12/02 08:36:26;;;;;;;;;;;2.50;99.90;;;;;;5057185;28;19952;-84
2021/12/02 08:38:52;;;;;;;;;;;2.70;99.90;;;;;;5053615;28;19923;-81
2021/12/02 08:41:19;;;;;;;;;;;2.70;99.90;;;;;;5055651;28;19924;-85
2021/12/02 08:43:45;;;;;;;;;;;2.80;99.90;;;;;;5031826;28;20248;-83
2021/12/02 08:46:11;;;;;;;;;;;2.80;99.90;;;;;;5061960;28;19913;-86
2021/12/02 08:48:37;;;;;;;;;;;2.90;99.90;;;;;;5058288;28;19934;-83
2021/12/02 08:51:02;;;;;;;;;;;3.10;99.90;;;;;;5056240;28;19938;-82
2021/12/02 08:53:28;;;;;;;;;;;3.10;99.90;;;;;;5049041;28;19917;-83
2021/12/02 08:55:53;;;;;;;;;;;3.10;99.90;;;;;;5061806;28;19916;-83
2021/12/02 08:58:19;;;;;;;;;;;3.10;99.90;;;;;;5056352;28;20327;-83
2021/12/02 09:00:46;;;;;;;;;;;3.10;99.90;;;;;;5051498;28;20008;-88
2021/12/02 09:03:13;;;;;;;;;;;3.00;99.90;;;;;;5054179;28;19924;-83
2021/12/02 09:05:39;;;;;;;;;;;2.90;99.90;;;;;;5054797;28;20315;-88
2021/12/02 09:08:06;;;;;;;;;;;2.80;99.90;;;;;;5058713;28;19920;-90
2021/12/02 09:10:32;;;;;;;;;;;2.80;99.90;;;;;;5053940;28;19923;-80
2021/12/02 09:12:58;;;;;;;;;;;2.70;99.90;;;;;;5029134;28;20010;-93
2021/12/02 09:15:24;;;;;;;;;;;2.60;99.90;;;;;;5043195;28;20315;-87
2021/12/02 09:17:50;;;;;;;;;;;2.60;99.90;;;;;;5052905;28;19927;-88
2021/12/02 09:20:16;;;;;;;;;;;2.50;99.90;;;;;;5055466;28;20303;-92
2021/12/02 09:22:43;;;;;;;;;;;2.50;99.90;;;;;;5032637;28;19929;-82
2021/12/02 09:25:09;;;;;;;;;;;2.60;99.90;;;;;;5031295;28;19918;-86
2021/12/02 09:27:35;;;;;;;;;;;2.60;99.90;;;;;;5031579;28;20004;-88
2021/12/02 09:30:01;;;;;;;;;;;2.60;99.90;;;;;;5031412;28;19995;-85
2021/12/02 09:32:27;;;;;;;;;;;2.60;99.90;;;;;;5033736;28;19913;-87
2021/12/02 09:34:53;;;;;;;;;;;2.70;99.90;;;;;;5030494;28;19925;-79
2021/12/02 09:37:19;;;;;;;;;;;2.70;99.90;;;;;;5034934;28;19913;-88
2021/12/02 09:39:44;;;;;;;;;;;2.60;99.90;;;;;;5027236;28;19917;-86
2021/12/02 09:42:10;;;;;;;;;;;2.60;99.90;;;;;;5029899;28;20347;-85
2021/12/02 09:44:40;;;;;;;;;;;2.60;99.90;;;;;;5029282;28;19917;-87
2021/12/02 09:47:05;;;;;;;;;;;2.60;99.90;;;;;;5026784;28;19956;-82
2021/12/02 09:49:32;;;;;;;;;;;2.70;99.90;;;;;;5030103;28;19948;-86
2021/12/02 09:52:02;;;;;;;;;;;2.70;99.90;;;;;;5026318;28;19916;-85
2021/12/02 09:54:55;;;;;;;;;;;2.80;99.90;;;;;;5032617;28;19944;-85
2021/12/02 09:57:17;;;;;;;;;;;2.80;99.90;;;;;;5028986;28;19932;-90
2021/12/02 10:02:12;;;;;;;;;;;2.80;99.90;;;;;;5033691;28;19917;-87
2021/12/02 10:04:43;;;;;;;;;;;2.80;99.90;;;;;;5026131;28;19914;-87
2021/12/02 10:07:13;;;;;;;;;;;2.70;99.90;;;;;;5025500;28;19921;-84
2021/12/02 10:09:49;;;;;;;;;;;2.60;99.90;;;;;;5025005;28;19913;-91
2021/12/02 10:12:20;;;;;;;;;;;2.50;99.90;;;;;;5024239;28;19920;-86
2021/12/02 10:14:50;;;;;;;;;;;2.30;99.90;;;;;;5024931;28;20063;-92
2021/12/02 10:17:22;;;;;;;;;;;2.20;99.90;;;;;;5027397;28;20536;-89
2021/12/02 10:23:10;;;;;;;;;;;2.20;99.90;;;;;;5047383;28;19929;-93
2021/12/02 10:25:36;;;;;;;;;;;2.20;99.90;;;;;;5049014;28;19927;-89
2021/12/02 10:28:03;;;;;;;;;;;2.30;99.90;;;;;;5047350;28;20802;-89
2021/12/02 10:30:29;;;;;;;;;;;2.40;99.90;;;;;;5048344;28;19940;-91
2021/12/02 10:32:54;;;;;;;;;;;2.40;99.90;;;;;;5048803;28;19920;-87
2021/12/02 10:35:35;;;;;;;;;;;2.40;99.90;;;;;;5048585;28;19921;-86
2021/12/02 10:38:00;;;;;;;;;;;2.40;99.90;;;;;;5048785;28;19963;-86
2021/12/02 10:40:26;;;;;;;;;;;2.50;99.90;;;;;;5049439;28;19960;-87
2021/12/02 10:42:52;;;;;;;;;;;2.50;99.90;;;;;;5026003;28;19928;-78
2021/12/02 10:45:21;;;;;;;;;;;2.60;99.90;;;;;;5031856;28;20321;-87
2021/12/02 10:47:52;;;;;;;;;;;2.60;99.90;;;;;;5034568;28;19924;-88
2021/12/02 10:50:18;;;;;;;;;;;2.70;99.90;;;;;;5046458;28;19913;-86
2021/12/02 10:52:44;;;;;;;;;;;2.60;99.90;;;;;;5046614;28;19970;-87
2021/12/02 10:55:11;;;;;;;;;;;2.70;99.90;;;;;;5025846;28;20000;-84
2021/12/02 10:57:47;;;;;;;;;;;2.70;99.90;;;;;;5047369;28;19913;-87
2021/12/02 11:00:15;;;;;;;;;;;2.70;99.90;;;;;;5052047;28;20000;-79
2021/12/02 11:02:46;;;;;;;;;;;2.80;99.90;;;;;;5055474;28;19916;-84
2021/12/02 11:05:38;;;;;;;;;;;2.80;99.90;;;;;;5050653;28;19924;-84
2021/12/02 11:08:09;;;;;;;;;;;2.90;99.90;;;;;;5038107;28;20208;-84
2021/12/02 11:10:38;;;;;;;;;;;2.90;99.90;;;;;;5035491;28;20338;-84
2021/12/02 11:13:04;;;;;;;;;;;2.90;99.90;;;;;;5053453;28;20564;-84
2021/12/02 11:15:31;;;;;;;;;;;2.90;99.90;;;;;;5044511;28;20004;-85
2021/12/02 11:17:58;;;;;;;;;;;2.90;99.90;;;;;;5061104;28;19913;-85
2021/12/02 11:20:59;;;;;;;;;;;3.00;99.90;;;;;;5053202;28;20207;-85
2021/12/02 11:23:47;;;;;;;;;;;3.00;99.90;;;;;;5013054;28;19929;-85
2021/12/02 11:26:16;;;;;;;;;;;3.00;99.90;;;;;;5015153;28;21483;-84
2021/12/02 11:28:43;;;;;;;;;;;3.20;99.90;;;;;;5016043;28;19918;-84
2021/12/02 11:31:12;;;;;;;;;;;3.20;99.90;;;;;;5018990;28;19914;-87
2021/12/02 11:33:39;;;;;;;;;;;3.30;99.90;;;;;;5016512;28;19920;-86
2021/12/02 11:36:06;;;;;;;;;;;3.20;99.90;;;;;;5010808;28;20001;-78
2021/12/02 11:38:32;;;;;;;;;;;3.20;99.90;;;;;;5023627;28;19980;-84
2021/12/02 11:40:59;;;;;;;;;;;3.20;99.90;;;;;;5011376;28;20252;-84
2021/12/02 11:43:26;;;;;;;;;;;3.40;99.90;;;;;;5018705;28;20303;-82
2021/12/02 11:45:52;;;;;;;;;;;3.50;99.90;;;;;;5011456;28;19925;-87
2021/12/02 11:48:26;;;;;;;;;;;3.70;99.90;;;;;;5005988;28;20305;-84
2021/12/02 11:50:52;;;;;;;;;;;3.90;99.90;;;;;;5018570;28;19914;-84
2021/12/02 11:53:21;;;;;;;;;;;4.10;99.90;;;;;;5012733;28;19924;-86
2021/12/02 11:55:48;;;;;;;;;;;4.30;99.90;;;;;;5023315;28;20223;-84
2021/12/02 11:58:14;;;;;;;;;;;4.50;99.90;;;;;;5011968;28;19953;-84
2021/12/02 12:00:43;;;;;;;;;;;4.60;99.90;;;;;;5016323;28;19913;-85
2021/12/02 12:03:10;;;;;;;;;;;4.80;99.90;;;;;;5005637;28;19945;-83
2021/12/02 12:05:39;;;;;;;;;;;4.90;99.90;;;;;;5009738;28;20217;-84
2021/12/02 12:08:05;;;;;;;;;;;5.00;99.90;;;;;;5007721;28;19918;-84
2021/12/02 12:10:35;;;;;;;;;;;4.90;99.90;;;;;;5010656;28;19960;-83
2021/12/02 12:13:16;;;;;;;;;;;5.00;99.90;;;;;;5009687;28;20256;-84
2021/12/02 12:15:45;;;;;;;;;;;5.00;99.90;;;;;;5007080;28;20151;-85
2021/12/02 12:18:18;;;;;;;;;;;5.20;99.90;;;;;;5016715;28;19913;-84
2021/12/02 12:20:50;;;;;;;;;;;5.00;99.90;;;;;;5004329;28;20268;-78
2021/12/02 12:23:29;;;;;;;;;;;4.80;99.90;;;;;;5046449;28;19921;-88
2021/12/02 12:26:15;;;;;;;;;;;4.70;99.90;;;;;;5035190;28;19913;-84
2021/12/02 12:28:59;;;;;;;;;;;4.50;99.90;;;;;;5038079;28;20363;-83
2021/12/02 12:31:27;;;;;;;;;;;4.40;99.90;;;;;;5051176;28;19916;-89
2021/12/02 12:33:52;;;;;;;;;;;4.30;99.90;;;;;;5045941;28;20300;-82
2021/12/02 12:36:37;;;;;;;;;;;4.30;99.90;;;;;;5049265;28;19920;-85
2021/12/02 12:39:16;;;;;;;;;;;4.30;99.90;;;;;;5029366;28;19909;-87
2021/12/02 12:41:42;;;;;;;;;;;4.40;99.90;;;;;;5050874;28;19955;-83
2021/12/02 12:44:08;;;;;;;;;;;4.60;99.90;;;;;;5042468;28;19909;-84
2021/12/02 12:46:34;;;;;;;;;;;4.70;99.90;;;;;;5051334;28;19917;-83
2021/12/02 12:49:17;;;;;;;;;;;4.80;99.90;;;;;;5035885;28;20028;-84
2021/12/02 12:51:49;;;;;;;;;;;5.00;99.90;;;;;;5051875;28;19938;-77
2021/12/02 12:54:20;;;;;;;;;;;5.00;99.90;;;;;;5063082;28;19909;-88
2021/12/02 12:56:47;;;;;;;;;;;5.00;99.90;;;;;;5034383;28;19912;-85
2021/12/02 12:59:15;;;;;;;;;;;5.00;99.90;;;;;;5049174;28;19924;-86
2021/12/02 13:01:53;;;;;;;;;;;5.00;99.90;;;;;;5048420;28;19956;-85
2021/12/02 13:04:21;;;;;;;;;;;5.00;99.90;;;;;;5046122;28;19916;-85
2021/12/02 13:06:52;;;;;;;;;;;4.90;99.90;;;;;;5034501;28;19916;-82
2021/12/02 13:09:38;;;;;;;;;;;4.90;99.90;;;;;;5023348;28;19949;-89
2021/12/02 13:12:05;;;;;;;;;;;4.80;99.90;;;;;;5050145;28;19966;-82
2021/12/02 13:14:30;;;;;;;;;;;4.80;99.90;;;;;;5038380;28;19974;-84
2021/12/02 13:16:56;;;;;;;;;;;4.70;99.90;;;;;;5052669;28;20262;-84
2021/12/02 13:19:22;;;;;;;;;;;4.70;99.90;;;;;;5033942;28;19924;-83
2021/12/02 13:21:55;;;;;;;;;;;4.60;99.90;;;;;;5054337;28;20359;-85
2021/12/02 13:24:31;;;;;;;;;;;4.60;99.90;;;;;;5063496;28;20260;-83
2021/12/02 13:27:05;;;;;;;;;;;4.60;99.90;;;;;;5051620;28;19952;-87
2021/12/02 13:29:33;;;;;;;;;;;4.60;99.90;;;;;;5036427;28;19942;-84
2021/12/02 13:32:00;;;;;;;;;;;4.60;99.90;;;;;;5053349;28;20004;-86
2021/12/02 13:34:27;;;;;;;;;;;4.60;99.90;;;;;;5055333;28;19916;-85
2021/12/02 13:37:00;;;;;;;;;;;4.60;99.90;;;;;;5052325;28;19940;-86
2021/12/02 13:39:26;;;;;;;;;;;4.60;99.90;;;;;;5034397;28;20373;-83
2021/12/02 13:41:52;;;;;;;;;;;4.60;99.90;;;;;;5049115;28;19925;-85
2021/12/02 13:44:22;;;;;;;;;;;4.60;99.90;;;;;;5049957;28;19916;-87
2021/12/02 13:46:49;;;;;;;;;;;4.60;99.90;;;;;;5030947;28;19921;-86
2021/12/02 13:49:19;;;;;;;;;;;4.60;99.90;;;;;;5053694;28;19912;-86
2021/12/02 13:54:33;;;;;;;;;;;4.60;99.90;;;;;;5055410;28;19928;-80
2021/12/02 13:57:00;;;;;;;;;;;4.50;99.90;;;;;;5036746;28;19956;-84
2021/12/02 13:59:37;;;;;;;;;;;4.60;99.90;;;;;;5033642;28;19994;-84
2021/12/02 14:02:03;;;;;;;;;;;4.50;99.90;;;;;;5030860;28;19920;-77
2021/12/02 14:04:28;;;;;;;;;;;4.40;99.90;;;;;;5036788;28;20219;-85
2021/12/02 14:07:29;;;;;;;;;;;4.40;99.90;;;;;;5036854;28;19979;-83
2021/12/02 14:10:00;;;;;;;;;;;4.30;99.90;;;;;;4985611;28;19915;-87
2021/12/02 14:12:43;;;;;;;;;;;4.20;99.90;;;;;;4977078;28;19925;-77
2021/12/02 14:15:12;;;;;;;;;;;4.10;99.90;;;;;;4961454;28;19918;-83
2021/12/02 14:17:55;;;;;;;;;;;4.10;99.90;;;;;;4981039;28;19915;-87
2021/12/02 14:20:30;;;;;;;;;;;4.00;99.90;;;;;;4963518;28;19937;-82
2021/12/02 14:22:56;;;;;;;;;;;3.90;99.90;;;;;;4980926;28;20018;-89
2021/12/02 14:25:25;;;;;;;;;;;3.80;99.90;;;;;;4984609;28;19918;-78
2021/12/02 14:28:09;;;;;;;;;;;3.80;99.90;;;;;;4975501;28;20291;-85
2021/12/02 14:30:39;;;;;;;;;;;3.80;99.90;;;;;;4972675;28;21222;-83
2021/12/02 14:33:07;;;;;;;;;;;3.70;99.90;;;;;;4986921;28;20036;-81
2021/12/02 14:35:41;;;;;;;;;;;3.70;99.90;;;;;;4988479;28;20336;-79
2021/12/02 14:38:33;;;;;;;;;;;3.80;99.90;;;;;;4982267;28;19922;-87
2021/12/02 14:41:09;;;;;;;;;;;3.90;99.90;;;;;;4976287;28;20578;-85
2021/12/02 14:43:34;;;;;;;;;;;3.90;99.90;;;;;;4995548;28;19913;-82
2021/12/02 14:46:19;;;;;;;;;;;3.80;99.90;;;;;;5037233;28;19919;-84
2021/12/02 14:48:57;;;;;;;;;;;3.80;99.90;;;;;;5037144;28;19927;-82
2021/12/02 14:51:22;;;;;;;;;;;3.90;99.90;;;;;;5057423;28;19917;-86
2021/12/02 14:53:52;;;;;;;;;;;3.90;99.90;;;;;;5036661;28;20547;-83
2021/12/02 14:56:20;;;;;;;;;;;3.90;99.90;;;;;;5056260;28;20217;-83
2021/12/02 14:59:05;;;;;;;;;;;3.70;99.90;;;;;;5052439;28;19924;-79
2021/12/02 15:01:36;;;;;;;;;;;3.60;99.90;;;;;;5056091;28;19917;-80
2021/12/02 15:04:18;;;;;;;;;;;3.50;99.90;;;;;;5037619;28;19968;-80